createdAt,value
2023-04-17T00:04:32.010Z,3.85
2023-04-17T00:09:34.105Z,3.47
2023-04-17T00:14:35.948Z,3.70
2023-04-17T00:19:37.556Z,3.88
2023-04-17T00:24:39.147Z,4.20
2023-04-17T00:29:40.939Z,3.22
2023-04-17T00:34:42.766Z,4.32
2023-04-17T00:39:44.613Z,3.92
2023-04-17T00:44:46.279Z,4.20
2023-04-17T00:49:49.883Z,4.85
2023-04-17T00:54:51.693Z,4.60
2023-04-17T00:59:56.542Z,4.55
2023-04-17T01:04:58.236Z,4.40
2023-04-17T01:09:59.962Z,4.10
2023-04-17T01:15:01.685Z,4.20
2023-04-17T01:20:08.887Z,4.88
2023-04-17T01:25:10.599Z,3.95
2023-04-17T01:30:14.446Z,3.95
2023-04-17T01:35:23.372Z,4.05
2023-04-17T01:40:25.031Z,4.75
2023-04-17T01:45:26.629Z,4.97
2023-04-17T01:50:28.424Z,4.53
2023-04-17T01:55:30.047Z,4.93
2023-04-17T02:00:31.759Z,5.05
2023-04-17T02:05:33.689Z,4.65
2023-04-17T02:10:35.268Z,4.60
2023-04-17T02:15:37.777Z,4.22
2023-04-17T02:20:40.097Z,4.72
2023-04-17T02:25:41.887Z,5.28
2023-04-17T02:30:43.551Z,5.15
2023-04-17T02:35:46.584Z,4.75
2023-04-17T02:40:48.392Z,5.30
2023-04-17T02:45:50.386Z,6.25
2023-04-17T02:50:52.362Z,5.90
2023-04-17T02:55:55.188Z,6.03
2023-04-17T03:01:01.558Z,6.00
2023-04-17T03:06:05.351Z,6.35
2023-04-17T03:11:07.101Z,5.38
2023-04-17T03:16:08.985Z,6.50
2023-04-17T03:21:12.574Z,5.47
2023-04-17T03:26:14.260Z,6.43
2023-04-17T03:31:16.831Z,5.88
2023-04-17T03:36:18.796Z,6.28
2023-04-17T03:41:21.543Z,5.63
2023-04-17T03:46:24.491Z,6.18
2023-04-17T03:51:27.506Z,6.28
2023-04-17T03:56:35.276Z,5.95
2023-04-17T04:01:39.137Z,6.65
2023-04-17T04:06:49.460Z,7.20
2023-04-17T04:11:54.528Z,7.03
2023-04-17T04:16:56.761Z,6.82
2023-04-17T04:21:59.902Z,6.40
2023-04-17T04:27:12.170Z,6.22
2023-04-17T04:32:15.819Z,6.72
2023-04-17T04:37:21.905Z,6.78
2023-04-17T04:42:25.861Z,6.70
2023-04-17T04:47:42.915Z,6.55
2023-04-17T04:52:44.841Z,7.47
2023-04-17T04:57:59.737Z,7.00
2023-04-17T05:03:03.066Z,7.00
2023-04-17T05:08:05.680Z,7.07
2023-04-17T05:13:10.315Z,6.40
2023-04-17T05:18:12.450Z,6.50
2023-04-17T05:23:15.788Z,6.88
2023-04-17T05:28:17.466Z,6.45
2023-04-17T05:33:19.704Z,6.07
2023-04-17T05:38:24.720Z,6.50
2023-04-17T05:43:26.372Z,6.07
2023-04-17T05:48:30.062Z,6.57
2023-04-17T05:53:31.953Z,6.70
2023-04-17T05:58:36.110Z,6.80
2023-04-17T06:03:39.712Z,6.40
2023-04-17T06:08:46.517Z,6.25
2023-04-17T06:13:48.202Z,6.38
2023-04-17T06:18:51.996Z,6.78
2023-04-17T06:23:53.758Z,6.75
2023-04-17T06:28:55.813Z,6.70
2023-04-17T06:33:58.795Z,7.05
2023-04-17T06:39:04.575Z,7.13
2023-04-17T06:44:07.876Z,6.50
2023-04-17T06:49:20.864Z,7.93
2023-04-17T06:54:22.498Z,7.80
2023-04-17T06:59:24.144Z,8.80
2023-04-17T07:04:26.163Z,9.15
2023-04-17T07:09:27.789Z,9.45
2023-04-17T07:14:29.879Z,9.40
2023-04-17T07:19:32.962Z,9.00
2023-04-17T07:24:35.142Z,9.48
2023-04-17T07:29:37.703Z,9.43
2023-04-17T07:34:41.290Z,8.80
2023-04-17T07:39:42.948Z,8.70
2023-04-17T07:44:44.650Z,8.15
2023-04-17T07:49:49.047Z,7.93
2023-04-17T07:54:50.892Z,8.02
2023-04-17T07:59:53.392Z,8.98
2023-04-17T08:04:55.495Z,8.70
2023-04-17T08:09:57.264Z,8.40
2023-04-17T08:14:59.151Z,8.50
2023-04-17T08:20:02.330Z,8.43
2023-04-17T08:25:09.176Z,8.50
2023-04-17T08:30:14.284Z,10.30
2023-04-17T08:35:17.539Z,7.97
2023-04-17T08:40:23.180Z,8.75
2023-04-17T08:45:25.370Z,7.65
2023-04-17T08:50:27.100Z,7.57
2023-04-17T08:55:32.566Z,8.07
2023-04-17T09:00:37.735Z,7.78
2023-04-17T09:05:46.352Z,8.38
2023-04-17T09:10:53.492Z,7.47
2023-04-17T09:16:06.205Z,7.15
2023-04-17T09:21:09.060Z,7.60
2023-04-17T09:26:10.878Z,8.02
2023-04-17T09:31:18.664Z,8.07
2023-04-17T09:36:23.833Z,7.72
2023-04-17T09:41:27.845Z,8.15
2023-04-17T09:46:45.996Z,8.10
2023-04-17T09:51:49.288Z,8.02
2023-04-17T09:56:52.403Z,8.40
2023-04-17T10:01:54.298Z,7.78
2023-04-17T10:06:59.387Z,7.90
2023-04-17T10:12:04.143Z,7.68
2023-04-17T10:17:25.844Z,7.38
2023-04-17T10:22:27.940Z,8.25
2023-04-17T10:28:10.002Z,8.23
2023-04-17T10:33:22.009Z,8.52
2023-04-17T10:38:36.622Z,8.18
2023-04-17T10:43:44.146Z,7.40
2023-04-17T10:48:53.046Z,7.68
2023-04-17T10:54:02.864Z,6.97
2023-04-17T10:59:06.872Z,7.55
2023-04-17T11:04:09.331Z,6.72
2023-04-17T11:09:11.921Z,7.00
2023-04-17T11:14:15.719Z,6.97
2023-04-17T11:19:19.382Z,6.43
2023-04-17T11:24:28.759Z,7.03
2023-04-17T11:29:30.440Z,6.45
2023-04-17T11:34:32.067Z,6.32
2023-04-17T11:39:34.663Z,5.68
2023-04-17T11:44:36.339Z,4.00
2023-04-17T11:49:39.214Z,4.05
2023-04-17T11:54:41.520Z,4.10
2023-04-17T11:59:44.852Z,4.35
2023-04-17T12:04:46.735Z,4.03
2023-04-17T12:09:56.695Z,3.90
2023-04-17T12:14:59.223Z,4.40
2023-04-17T12:20:04.072Z,5.22
2023-04-17T12:25:06.470Z,4.45
2023-04-17T12:30:08.914Z,4.40
2023-04-17T12:35:10.748Z,4.22
2023-04-17T12:40:12.628Z,4.68
2023-04-17T12:45:15.736Z,3.63
2023-04-17T12:50:17.395Z,5.00
2023-04-17T12:55:19.126Z,4.65
2023-04-17T13:00:20.963Z,4.43
2023-04-17T13:05:22.639Z,4.72
2023-04-17T13:10:24.737Z,6.70
2023-04-17T13:15:26.401Z,5.70
2023-04-17T13:20:28.661Z,6.60
2023-04-17T13:25:32.194Z,5.45
2023-04-17T13:30:35.246Z,6.30
2023-04-17T13:35:36.901Z,6.10
2023-04-17T13:40:38.620Z,5.70
2023-04-17T13:45:40.539Z,5.28
2023-04-17T13:50:42.683Z,5.22
2023-04-17T13:55:44.546Z,5.68
2023-04-17T14:00:46.640Z,5.40
2023-04-17T14:05:48.556Z,5.47
2023-04-17T14:10:50.226Z,6.20
2023-04-17T14:15:53.783Z,6.47
2023-04-17T14:20:55.507Z,6.35
2023-04-17T14:25:57.187Z,4.95
2023-04-17T14:30:58.933Z,6.05
2023-04-17T14:36:00.693Z,6.22
2023-04-17T14:41:02.553Z,5.30
2023-04-17T14:46:04.314Z,5.65
2023-04-17T14:51:10.013Z,5.75
2023-04-17T14:56:11.908Z,5.95
2023-04-17T15:01:13.666Z,5.55
2023-04-17T15:06:16.614Z,6.78
2023-04-17T15:11:18.344Z,6.50
2023-04-17T15:16:20.039Z,6.38
2023-04-17T15:21:21.922Z,5.78
2023-04-17T15:26:24.865Z,6.45
2023-04-17T15:31:26.785Z,8.00
2023-04-17T15:36:33.427Z,7.70
2023-04-17T15:41:35.243Z,9.65
2023-04-17T15:46:37.008Z,8.68
2023-04-17T15:51:40.929Z,9.82
2023-04-17T15:56:43.154Z,10.60
2023-04-17T16:01:46.512Z,10.63
2023-04-17T16:06:48.149Z,10.15
2023-04-17T16:11:50.978Z,10.52
2023-04-17T16:16:52.635Z,36.83
2023-04-17T16:21:54.324Z,12.13
2023-04-17T16:27:01.685Z,11.48
2023-04-17T16:32:03.562Z,13.63
2023-04-17T16:37:05.452Z,14.68
2023-04-17T16:42:07.384Z,28.38
2023-04-17T16:47:13.870Z,14.85
2023-04-17T16:52:17.716Z,15.48
2023-04-17T16:57:19.387Z,16.83
2023-04-17T17:02:21.278Z,14.70
2023-04-17T17:07:22.981Z,17.48
2023-04-17T17:12:24.880Z,18.17
2023-04-17T17:17:26.902Z,19.17
2023-04-17T17:22:28.596Z,14.98
2023-04-17T17:27:30.209Z,15.00
2023-04-17T17:32:32.377Z,11.98
2023-04-17T17:37:34.164Z,11.07
2023-04-17T17:42:35.838Z,12.15
2023-04-17T17:47:37.459Z,11.73
2023-04-17T17:52:39.295Z,12.38
2023-04-17T17:57:48.792Z,11.15
2023-04-17T18:02:51.044Z,11.48
2023-04-17T18:07:53.000Z,12.02
2023-04-17T18:12:54.649Z,9.88
2023-04-17T18:17:56.482Z,9.63
2023-04-17T18:22:58.152Z,7.95
2023-04-17T18:27:59.763Z,7.80
2023-04-17T18:33:01.375Z,7.93
2023-04-17T18:38:03.333Z,8.15
2023-04-17T18:43:06.134Z,7.75
2023-04-17T18:48:08.817Z,7.60
2023-04-17T18:53:10.550Z,6.63
2023-04-17T18:58:12.228Z,6.30
2023-04-17T19:03:14.116Z,6.90
2023-04-17T19:08:16.020Z,7.50
2023-04-17T19:13:18.399Z,6.80
2023-04-17T19:18:20.201Z,7.30
2023-04-17T19:23:21.857Z,7.30
2023-04-17T19:28:24.934Z,6.88
2023-04-17T19:33:26.502Z,6.82
2023-04-17T19:38:28.831Z,7.95
2023-04-17T19:43:30.455Z,7.50
2023-04-17T19:48:32.106Z,7.78
2023-04-17T19:53:35.042Z,8.23
2023-04-17T19:58:38.100Z,9.18
2023-04-17T20:03:42.246Z,9.07
2023-04-17T20:08:44.074Z,10.20
2023-04-17T20:13:46.606Z,9.60
2023-04-17T20:18:49.698Z,9.77
2023-04-17T20:23:51.349Z,10.20
2023-04-17T20:28:54.735Z,10.10
2023-04-17T20:33:56.456Z,11.48
2023-04-17T20:38:58.048Z,12.18
2023-04-17T20:44:00.641Z,9.27
2023-04-17T20:49:02.418Z,9.40
2023-04-17T20:54:04.429Z,10.02
2023-04-17T20:59:06.171Z,10.65
2023-04-17T21:04:09.900Z,12.02
2023-04-17T21:09:14.132Z,10.77
2023-04-17T21:14:16.241Z,12.48
2023-04-17T21:19:18.078Z,11.85
2023-04-17T21:24:19.921Z,12.75
2023-04-17T21:29:22.380Z,11.80
2023-04-17T21:34:24.625Z,12.25
2023-04-17T21:39:26.570Z,12.40
2023-04-17T21:44:28.485Z,14.02
2023-04-17T21:49:30.216Z,14.75
2023-04-17T21:54:33.489Z,12.85
2023-04-17T21:59:35.507Z,14.52
2023-04-17T22:04:37.327Z,15.20
2023-04-17T22:09:39.131Z,14.10
2023-04-17T22:14:41.013Z,14.88
2023-04-17T22:19:42.674Z,13.57
2023-04-17T22:24:44.229Z,14.90
2023-04-17T22:29:45.908Z,13.48
2023-04-17T22:34:48.712Z,13.48
2023-04-17T22:39:50.461Z,12.75
2023-04-17T22:44:52.563Z,12.60
2023-04-17T22:49:55.126Z,12.15
2023-04-17T22:54:57.204Z,11.43
2023-04-17T22:59:58.885Z,11.60
2023-04-17T23:05:00.623Z,10.32
2023-04-17T23:10:02.258Z,11.75
2023-04-17T23:15:04.212Z,10.43
2023-04-17T23:20:06.411Z,10.05
2023-04-17T23:25:08.542Z,9.80
2023-04-17T23:30:10.615Z,9.85
2023-04-17T23:35:12.223Z,10.20
2023-04-17T23:40:14.178Z,10.15
2023-04-17T23:45:15.800Z,9.85
2023-04-17T23:50:17.422Z,9.70
2023-04-17T23:55:19.014Z,9.60
